Warthen, Georgia
Current Conditions -  °F | °C
As of 9:55 AM on Sunday 21 Dec 2014 (Local Time) from KOKZ Reporting Station
Overcast Overcast  
Wind Chill: 44°   Ceiling: 1000
Heat Index: 47°   Visibility: 7mi
Dew Point: 45°   Wind: 8mph
Humidity: 90%   Direction: 50°NE
Pressure: 30.24"   Gusts: NA
Location:  33.1°N, 82.8°W
Report Text: KOKZ 211455Z AUTO 05007KT 7SM BKN010 BKN026 OVC050 09/07 A3024 RMK AO2 T00860070
Loading
Personal Weather Stations






























Interactive Weather Map New forecast layout! Learn more

10-Day Weather Forecast

Advertisements
Track Severe Weather on mobile